createdAt,value
2023-05-16T00:00:25.984Z,14.39
2023-05-16T00:02:52.727Z,14.30
2023-05-16T00:05:19.258Z,14.02
2023-05-16T00:07:47.515Z,14.39
2023-05-16T00:10:14.180Z,14.22
2023-05-16T00:12:40.555Z,13.56
2023-05-16T00:15:08.683Z,13.88
2023-05-16T00:17:35.672Z,13.66
2023-05-16T00:20:08.860Z,13.88
2023-05-16T00:22:35.217Z,13.82
2023-05-16T00:25:02.055Z,13.90
2023-05-16T00:27:28.407Z,13.64
2023-05-16T00:29:55.814Z,14.07
2023-05-16T00:32:22.479Z,13.48
2023-05-16T00:34:48.960Z,13.63
2023-05-16T00:37:15.485Z,13.92
2023-05-16T00:39:41.919Z,13.28
2023-05-16T00:42:08.326Z,13.23
2023-05-16T00:44:34.685Z,13.29
2023-05-16T00:47:02.626Z,13.80
2023-05-16T00:49:29.575Z,13.98
2023-05-16T00:51:58.546Z,13.69
2023-05-16T00:54:28.754Z,13.77
2023-05-16T00:56:56.601Z,13.62
2023-05-16T00:59:24.612Z,13.75
2023-05-16T01:01:52.321Z,12.96
2023-05-16T01:04:19.209Z,13.53
2023-05-16T01:06:46.006Z,13.21
2023-05-16T01:09:13.242Z,13.65
2023-05-16T01:12:08.164Z,13.56
2023-05-16T01:14:49.853Z,13.55
2023-05-16T01:17:30.068Z,13.40
2023-05-16T01:20:16.407Z,13.71
2023-05-16T01:22:52.526Z,13.85
2023-05-16T01:25:46.880Z,13.99
2023-05-16T01:28:15.871Z,13.84
2023-05-16T01:30:42.265Z,13.75
2023-05-16T01:33:09.689Z,13.89
2023-05-16T01:35:53.254Z,13.31
2023-05-16T01:38:30.487Z,13.73
2023-05-16T01:41:19.199Z,13.89
2023-05-16T01:43:56.013Z,13.63
2023-05-16T01:46:30.573Z,13.62
2023-05-16T01:49:06.235Z,13.58
2023-05-16T01:51:33.787Z,13.28
2023-05-16T01:54:06.002Z,13.60
2023-05-16T01:56:33.536Z,13.81
2023-05-16T01:59:02.151Z,13.17
2023-05-16T02:01:30.141Z,13.06
2023-05-16T02:03:56.767Z,12.93
2023-05-16T02:06:24.196Z,12.86
2023-05-16T02:08:50.867Z,12.85
2023-05-16T02:11:17.215Z,13.24
2023-05-16T02:13:43.586Z,13.45
2023-05-16T02:16:13.222Z,13.62
2023-05-16T02:18:39.638Z,13.40
2023-05-16T02:21:06.089Z,13.46
2023-05-16T02:23:32.668Z,13.36
2023-05-16T02:25:59.051Z,12.83
2023-05-16T02:28:25.570Z,13.40
2023-05-16T02:30:58.896Z,12.70
2023-05-16T02:33:28.816Z,13.23
2023-05-16T02:35:55.316Z,13.10
2023-05-16T02:38:21.823Z,13.28
2023-05-16T02:40:48.740Z,13.28
2023-05-16T02:43:15.293Z,12.88
2023-05-16T02:45:41.764Z,13.09
2023-05-16T02:48:08.533Z,13.03
2023-05-16T02:50:35.017Z,13.10
2023-05-16T02:53:02.386Z,12.49
2023-05-16T02:55:29.230Z,13.23
2023-05-16T02:57:55.653Z,12.99
2023-05-16T03:00:22.274Z,13.03
2023-05-16T03:02:48.823Z,12.96
2023-05-16T03:05:15.295Z,12.68
2023-05-16T03:07:41.759Z,12.95
2023-05-16T03:10:08.672Z,13.06
2023-05-16T03:12:35.031Z,12.66
2023-05-16T03:15:01.710Z,12.79
2023-05-16T03:17:28.694Z,12.74
2023-05-16T03:19:55.111Z,12.49
2023-05-16T03:22:21.455Z,12.85
2023-05-16T03:24:47.883Z,12.80
2023-05-16T03:27:14.315Z,12.13
2023-05-16T03:29:40.728Z,12.37
2023-05-16T03:32:07.384Z,12.12
2023-05-16T03:34:33.901Z,12.43
2023-05-16T03:37:01.368Z,11.76
2023-05-16T03:39:27.777Z,12.45
2023-05-16T03:41:57.038Z,12.33
2023-05-16T03:44:23.391Z,12.29
2023-05-16T03:46:51.253Z,12.59
2023-05-16T03:49:17.595Z,12.30
2023-05-16T03:51:43.905Z,12.21
2023-05-16T03:54:10.253Z,12.60
2023-05-16T03:56:36.567Z,12.44
2023-05-16T03:59:02.892Z,12.05
2023-05-16T04:01:29.686Z,12.34
2023-05-16T04:03:56.464Z,12.16
2023-05-16T04:06:22.980Z,12.56
2023-05-16T04:08:49.506Z,12.35
2023-05-16T04:11:15.820Z,12.24
2023-05-16T04:13:42.213Z,12.37
2023-05-16T04:16:08.606Z,12.07
2023-05-16T04:18:35.235Z,11.88
2023-05-16T04:21:01.784Z,11.98
2023-05-16T04:23:28.265Z,11.85
2023-05-16T04:25:56.415Z,11.73
2023-05-16T04:28:23.331Z,12.04
2023-05-16T04:30:50.403Z,11.82
2023-05-16T04:33:16.914Z,11.21
2023-05-16T04:35:43.368Z,11.88
2023-05-16T04:38:09.768Z,11.56
2023-05-16T04:40:36.199Z,11.78
2023-05-16T04:43:02.602Z,11.23
2023-05-16T04:45:29.117Z,11.86
2023-05-16T04:47:55.738Z,11.72
2023-05-16T04:50:22.238Z,11.57
2023-05-16T04:52:48.701Z,11.91
2023-05-16T04:55:16.007Z,11.86
2023-05-16T04:57:42.345Z,11.16
2023-05-16T05:00:11.866Z,11.96
2023-05-16T05:02:39.120Z,12.22
2023-05-16T05:05:06.592Z,12.10
2023-05-16T05:07:33.294Z,12.20
2023-05-16T05:09:59.735Z,11.85
2023-05-16T05:12:27.707Z,11.96
2023-05-16T05:14:54.723Z,12.48
2023-05-16T05:17:21.753Z,12.58
2023-05-16T05:19:48.335Z,12.46
2023-05-16T05:22:15.013Z,12.40
2023-05-16T05:24:41.426Z,12.29
2023-05-16T05:27:07.805Z,12.65
2023-05-16T05:29:34.157Z,11.99
2023-05-16T05:32:00.624Z,11.99
2023-05-16T05:34:27.056Z,12.37
2023-05-16T05:36:53.462Z,12.45
2023-05-16T05:39:19.851Z,12.49
2023-05-16T05:41:46.291Z,12.49
2023-05-16T05:44:12.646Z,12.65
2023-05-16T05:46:39.481Z,12.23
2023-05-16T05:49:06.139Z,11.93
2023-05-16T05:51:32.674Z,12.10
2023-05-16T05:53:59.190Z,12.78
2023-05-16T05:56:25.603Z,12.98
2023-05-16T05:58:52.065Z,12.12
2023-05-16T06:01:18.573Z,12.52
2023-05-16T06:03:45.013Z,12.47
2023-05-16T06:06:11.391Z,12.64
2023-05-16T06:08:40.184Z,12.85
2023-05-16T06:11:06.720Z,13.41
2023-05-16T06:13:33.125Z,13.41
2023-05-16T06:15:59.459Z,13.32
2023-05-16T06:18:25.799Z,13.35
2023-05-16T06:20:53.140Z,12.97
2023-05-16T06:23:21.339Z,13.88
2023-05-16T06:25:47.923Z,13.07
2023-05-16T06:28:14.281Z,13.29
2023-05-16T06:30:40.807Z,13.41
2023-05-16T06:33:10.295Z,14.11
2023-05-16T06:35:36.644Z,13.73
2023-05-16T06:38:02.995Z,14.00
2023-05-16T06:40:29.389Z,13.55
2023-05-16T06:42:58.336Z,13.80
2023-05-16T06:45:24.782Z,14.18
2023-05-16T06:47:51.327Z,13.64
2023-05-16T06:50:17.832Z,14.00
2023-05-16T06:52:44.397Z,13.93
2023-05-16T06:58:59.331Z,13.94
2023-05-16T07:01:25.716Z,13.15
2023-05-16T07:03:52.507Z,13.42
2023-05-16T07:06:19.118Z,13.98
2023-05-16T07:08:45.618Z,14.15
2023-05-16T07:11:12.024Z,14.17
2023-05-16T07:13:38.423Z,14.39
2023-05-16T07:16:09.097Z,13.81
2023-05-16T07:18:35.632Z,14.25
2023-05-16T07:21:02.105Z,14.46
2023-05-16T07:23:28.716Z,14.27
2023-05-16T07:25:55.178Z,14.77
2023-05-16T07:28:22.130Z,14.06
2023-05-16T07:30:48.676Z,13.94
2023-05-16T07:33:15.199Z,14.57
2023-05-16T07:35:41.643Z,14.75
2023-05-16T07:38:08.038Z,14.50
2023-05-16T07:40:34.445Z,14.15
2023-05-16T07:43:02.764Z,14.31
2023-05-16T07:45:29.474Z,15.04
2023-05-16T07:47:56.258Z,14.49
2023-05-16T07:50:22.667Z,14.95
2023-05-16T07:52:49.207Z,13.76
2023-05-16T07:55:15.659Z,14.64
2023-05-16T07:57:43.621Z,13.68
2023-05-16T08:00:10.722Z,14.21
2023-05-16T08:02:39.631Z,14.44
2023-05-16T08:05:07.049Z,14.54
2023-05-16T08:07:33.637Z,14.22
2023-05-16T08:10:00.012Z,14.88
2023-05-16T08:12:27.401Z,14.80
2023-05-16T08:14:53.806Z,14.95
2023-05-16T08:17:20.306Z,14.15
2023-05-16T08:19:46.780Z,14.84
2023-05-16T08:22:13.326Z,14.30
2023-05-16T08:24:39.862Z,14.94
2023-05-16T08:27:06.276Z,15.32
2023-05-16T08:29:32.755Z,14.82
2023-05-16T08:31:59.396Z,15.67
2023-05-16T08:34:26.057Z,15.03
2023-05-16T08:36:54.727Z,16.29
2023-05-16T08:39:21.190Z,16.75
2023-05-16T08:41:47.894Z,16.99
2023-05-16T08:44:21.211Z,17.04
2023-05-16T08:46:52.796Z,16.71
2023-05-16T08:49:20.038Z,16.86
2023-05-16T08:51:47.942Z,16.61
2023-05-16T08:54:16.022Z,16.10
2023-05-16T08:56:43.258Z,15.76
2023-05-16T08:59:11.525Z,16.17
2023-05-16T09:01:38.385Z,16.21
2023-05-16T09:04:07.953Z,16.37
2023-05-16T09:06:34.929Z,16.65
2023-05-16T09:09:02.476Z,17.25
2023-05-16T09:11:29.150Z,17.16
2023-05-16T09:13:55.743Z,17.91
2023-05-16T09:16:22.149Z,17.79
2023-05-16T09:18:56.981Z,17.70
2023-05-16T09:21:28.283Z,16.91
2023-05-16T09:23:55.341Z,16.80
2023-05-16T09:26:22.681Z,16.70
2023-05-16T09:28:49.191Z,16.47
2023-05-16T09:31:31.753Z,16.52
2023-05-16T09:33:58.387Z,16.68
2023-05-16T09:36:26.026Z,16.66
2023-05-16T09:38:53.164Z,17.12
2023-05-16T09:41:22.018Z,17.33
2023-05-16T09:43:48.457Z,17.35
2023-05-16T09:46:15.604Z,17.75
2023-05-16T09:48:45.371Z,17.57
2023-05-16T09:51:12.800Z,17.77
2023-05-16T09:53:40.630Z,16.82
2023-05-16T09:56:11.251Z,18.05
2023-05-16T09:58:39.689Z,17.57
2023-05-16T10:01:07.261Z,17.80
2023-05-16T10:03:39.307Z,17.74
2023-05-16T10:06:06.871Z,17.46
2023-05-16T10:08:38.657Z,17.27
2023-05-16T10:11:06.436Z,17.36
2023-05-16T10:13:36.879Z,17.15
2023-05-16T10:16:13.993Z,17.20
2023-05-16T10:18:42.794Z,17.44
2023-05-16T10:21:15.338Z,17.43
2023-05-16T10:23:43.310Z,18.75
2023-05-16T10:26:11.770Z,17.90
2023-05-16T10:28:42.589Z,18.88
2023-05-16T10:31:12.702Z,18.51
2023-05-16T10:33:39.840Z,19.20
2023-05-16T10:36:08.680Z,18.81
2023-05-16T10:38:36.370Z,18.60
2023-05-16T10:41:03.376Z,17.62
2023-05-16T10:43:30.928Z,17.74
2023-05-16T10:46:02.868Z,17.69
2023-05-16T10:48:38.655Z,17.39
2023-05-16T10:51:23.418Z,18.57
2023-05-16T10:54:06.230Z,19.73
2023-05-16T10:56:33.252Z,21.70
2023-05-16T10:58:59.691Z,22.05
2023-05-16T11:01:30.436Z,22.48
2023-05-16T11:03:56.876Z,22.02
2023-05-16T11:06:49.530Z,22.04
2023-05-16T11:09:28.349Z,22.92
2023-05-16T11:11:59.370Z,22.04
2023-05-16T11:14:32.146Z,21.65
2023-05-16T11:17:07.647Z,19.64
2023-05-16T11:19:45.396Z,19.35
2023-05-16T11:22:16.601Z,19.09
2023-05-16T11:24:50.300Z,19.08
2023-05-16T11:27:25.475Z,18.69
2023-05-16T11:29:53.470Z,18.98
2023-05-16T11:32:22.292Z,20.61
2023-05-16T11:34:50.311Z,20.25
2023-05-16T11:37:18.591Z,21.34
2023-05-16T11:39:45.221Z,20.84
2023-05-16T11:42:13.271Z,21.11
2023-05-16T11:44:40.995Z,21.17
2023-05-16T11:47:08.038Z,21.59
2023-05-16T11:49:35.546Z,21.88
2023-05-16T11:52:03.157Z,21.88
2023-05-16T11:54:30.078Z,21.90
2023-05-16T11:56:56.627Z,22.86
2023-05-16T11:59:23.759Z,23.65
2023-05-16T12:01:50.471Z,22.81
2023-05-16T12:04:18.078Z,23.58
2023-05-16T12:06:45.113Z,23.28
2023-05-16T12:09:14.293Z,22.78
2023-05-16T12:11:43.465Z,22.88
2023-05-16T12:14:12.016Z,22.77
2023-05-16T12:16:39.750Z,23.31
2023-05-16T12:19:06.962Z,23.70
2023-05-16T12:21:34.111Z,23.67
2023-05-16T12:24:01.029Z,24.52
2023-05-16T12:26:30.895Z,24.11
2023-05-16T12:29:00.745Z,24.01
2023-05-16T12:31:32.124Z,23.39
2023-05-16T12:33:59.545Z,23.00
2023-05-16T12:36:26.368Z,24.20
2023-05-16T12:38:53.664Z,24.33
2023-05-16T12:41:21.675Z,23.23
2023-05-16T12:43:49.216Z,22.29
2023-05-16T12:46:16.370Z,22.06
2023-05-16T12:48:44.111Z,21.34
2023-05-16T12:51:15.213Z,20.56
2023-05-16T12:53:57.567Z,20.35
2023-05-16T12:56:32.401Z,20.11
2023-05-16T12:58:58.784Z,19.34
2023-05-16T13:01:25.241Z,19.69
2023-05-16T13:03:51.887Z,20.10
2023-05-16T13:06:18.493Z,21.04
2023-05-16T13:08:44.872Z,21.81
2023-05-16T13:11:11.231Z,22.57
2023-05-16T13:13:37.682Z,22.72
2023-05-16T13:16:04.340Z,21.93
2023-05-16T13:18:31.336Z,22.00
2023-05-16T13:20:57.888Z,21.64
2023-05-16T13:23:24.293Z,21.27
2023-05-16T13:25:52.918Z,21.11
2023-05-16T13:28:19.360Z,20.55
2023-05-16T13:30:45.776Z,20.15
2023-05-16T13:33:12.461Z,19.93
2023-05-16T13:35:39.071Z,19.83
2023-05-16T13:38:05.485Z,20.05
2023-05-16T13:40:32.786Z,20.07
2023-05-16T13:43:00.917Z,19.85
2023-05-16T13:45:28.986Z,19.52
2023-05-16T13:47:55.701Z,19.59
2023-05-16T13:50:22.173Z,19.59
2023-05-16T13:52:48.710Z,19.92
2023-05-16T13:55:15.202Z,19.74
2023-05-16T13:57:41.716Z,19.77
2023-05-16T14:00:35.153Z,19.43
2023-05-16T14:02:58.768Z,19.02
2023-05-16T14:05:26.150Z,19.49
2023-05-16T14:07:52.610Z,19.42
2023-05-16T14:10:19.111Z,19.57
2023-05-16T14:12:45.706Z,19.77
2023-05-16T14:15:12.109Z,19.83
2023-05-16T14:17:38.795Z,19.74
2023-05-16T14:20:10.142Z,19.96
2023-05-16T14:22:37.659Z,19.88
2023-05-16T14:25:04.681Z,20.14
2023-05-16T14:27:31.098Z,19.64
2023-05-16T14:29:59.056Z,20.09
2023-05-16T14:32:25.639Z,20.15
2023-05-16T14:34:52.094Z,19.83
2023-05-16T14:37:18.549Z,20.37
2023-05-16T14:39:46.442Z,20.35
2023-05-16T14:42:12.929Z,19.75
2023-05-16T14:44:39.290Z,19.76
2023-05-16T14:47:06.537Z,19.85
2023-05-16T14:49:32.933Z,19.97
2023-05-16T14:51:59.346Z,19.92
2023-05-16T14:54:25.746Z,19.40
2023-05-16T14:56:52.206Z,19.59
2023-05-16T14:59:18.628Z,19.50
2023-05-16T15:01:46.836Z,19.68
2023-05-16T15:04:13.228Z,19.69
2023-05-16T15:06:39.596Z,20.00
2023-05-16T15:09:08.749Z,19.70
2023-05-16T15:11:35.186Z,19.75
2023-05-16T15:14:01.854Z,19.40
2023-05-16T15:16:30.295Z,19.36
2023-05-16T15:18:56.973Z,19.34
2023-05-16T15:21:23.630Z,19.04
2023-05-16T15:23:50.258Z,19.35
2023-05-16T15:26:17.551Z,19.37
2023-05-16T15:28:44.121Z,19.24
2023-05-16T15:31:10.700Z,18.95
2023-05-16T15:33:37.096Z,19.09
2023-05-16T15:36:03.871Z,19.24
2023-05-16T15:38:30.599Z,18.26
2023-05-16T15:41:14.194Z,18.66
2023-05-16T15:43:43.498Z,18.68
2023-05-16T15:46:11.195Z,19.07
2023-05-16T15:48:42.655Z,19.72
2023-05-16T15:51:09.412Z,19.46
2023-05-16T15:53:35.824Z,19.58
2023-05-16T15:56:02.346Z,19.10
2023-05-16T15:58:28.998Z,19.84
2023-05-16T16:00:55.946Z,20.01
2023-05-16T16:03:22.604Z,19.93
2023-05-16T16:05:50.102Z,19.54
2023-05-16T16:08:16.645Z,19.70
2023-05-16T16:10:43.093Z,18.83
2023-05-16T16:13:09.671Z,19.08
2023-05-16T16:15:36.491Z,19.09
2023-05-16T16:18:03.269Z,19.09
2023-05-16T16:20:29.892Z,18.83
2023-05-16T16:22:56.352Z,19.28
2023-05-16T16:25:22.899Z,19.16
2023-05-16T16:27:49.283Z,19.49
2023-05-16T16:30:15.665Z,19.38
2023-05-16T16:32:42.088Z,19.49
2023-05-16T16:35:08.916Z,19.16
2023-05-16T16:37:35.469Z,19.43
2023-05-16T16:40:02.190Z,19.24
2023-05-16T16:42:30.529Z,19.20
2023-05-16T16:44:57.325Z,18.58
2023-05-16T16:47:25.023Z,18.98
2023-05-16T16:49:51.566Z,19.08
2023-05-16T16:52:17.950Z,18.71
2023-05-16T16:54:44.450Z,18.99
2023-05-16T16:57:10.888Z,18.54
2023-05-16T16:59:37.328Z,18.76
2023-05-16T17:02:03.779Z,18.64
2023-05-16T17:04:31.476Z,18.70
2023-05-16T17:06:57.889Z,18.59
2023-05-16T17:09:25.301Z,18.90
2023-05-16T17:11:52.113Z,18.44
2023-05-16T17:14:18.613Z,18.40
2023-05-16T17:16:45.317Z,18.39
2023-05-16T17:19:11.771Z,18.11
2023-05-16T17:21:40.430Z,18.55
2023-05-16T17:24:07.627Z,18.50
2023-05-16T17:26:34.205Z,18.49
2023-05-16T17:29:00.841Z,18.33
2023-05-16T17:31:28.060Z,18.79
2023-05-16T17:33:54.474Z,18.33
2023-05-16T17:36:21.370Z,18.10
2023-05-16T17:38:48.704Z,18.15
2023-05-16T17:41:15.428Z,18.20
2023-05-16T17:43:44.640Z,18.21
2023-05-16T17:46:11.841Z,18.15
2023-05-16T17:48:38.331Z,18.31
2023-05-16T17:51:04.908Z,18.35
2023-05-16T17:53:31.311Z,18.19
2023-05-16T17:55:57.953Z,18.12
2023-05-16T17:58:24.361Z,17.78
2023-05-16T18:00:51.053Z,17.79
2023-05-16T18:03:17.641Z,17.80
2023-05-16T18:05:44.164Z,17.69
2023-05-16T18:08:10.603Z,17.79
2023-05-16T18:10:51.053Z,17.90
2023-05-16T18:13:18.399Z,18.21
2023-05-16T18:15:44.820Z,17.37
2023-05-16T18:18:11.727Z,17.73
2023-05-16T18:20:38.296Z,17.95
2023-05-16T18:23:04.827Z,17.89
2023-05-16T18:25:32.109Z,17.85
2023-05-16T18:27:58.501Z,18.04
2023-05-16T18:30:25.783Z,17.69
2023-05-16T18:32:52.296Z,18.08
2023-05-16T18:35:18.916Z,17.92
2023-05-16T18:37:45.746Z,18.04
2023-05-16T18:40:12.639Z,18.01
2023-05-16T18:42:39.204Z,18.09
2023-05-16T18:45:06.315Z,18.13
2023-05-16T18:47:32.870Z,18.13
2023-05-16T18:49:59.363Z,18.06
2023-05-16T18:52:25.753Z,17.51
2023-05-16T18:54:52.356Z,18.01
2023-05-16T18:57:18.817Z,17.77
2023-05-16T18:59:45.330Z,18.06
2023-05-16T19:02:11.858Z,17.92
2023-05-16T19:04:38.418Z,18.02
2023-05-16T19:07:06.604Z,17.83
2023-05-16T19:09:34.334Z,17.64
2023-05-16T19:12:00.757Z,17.60
2023-05-16T19:14:27.989Z,17.80
2023-05-16T19:16:54.488Z,17.98
2023-05-16T19:19:21.120Z,17.78
2023-05-16T19:21:47.881Z,17.43
2023-05-16T19:24:14.910Z,17.47
2023-05-16T19:26:41.428Z,17.73
2023-05-16T19:29:07.952Z,17.72
2023-05-16T19:31:34.344Z,17.51
2023-05-16T19:34:00.861Z,17.58
2023-05-16T19:36:27.401Z,17.68
2023-05-16T19:38:53.780Z,17.32
2023-05-16T19:41:21.435Z,17.29
2023-05-16T19:43:47.828Z,17.11
2023-05-16T19:46:14.611Z,17.45
2023-05-16T19:48:41.072Z,17.76
2023-05-16T19:51:09.072Z,17.85
2023-05-16T19:53:35.999Z,17.96
2023-05-16T19:56:02.513Z,17.58
2023-05-16T19:58:28.954Z,17.75
2023-05-16T20:00:56.539Z,17.42
2023-05-16T20:03:23.680Z,17.34
2023-05-16T20:05:50.113Z,17.42
2023-05-16T20:08:16.657Z,17.32
2023-05-16T20:10:43.352Z,16.98
2023-05-16T20:13:09.825Z,17.06
2023-05-16T20:15:36.887Z,17.04
2023-05-16T20:18:03.611Z,17.33
2023-05-16T20:20:30.223Z,17.18
2023-05-16T20:22:56.676Z,17.25
2023-05-16T20:25:23.210Z,17.08
2023-05-16T20:27:49.662Z,17.17
2023-05-16T20:30:16.086Z,16.88
2023-05-16T20:32:42.648Z,16.61
2023-05-16T20:35:11.149Z,16.30
2023-05-16T20:37:37.828Z,16.35
2023-05-16T20:40:06.036Z,16.95
2023-05-16T20:42:32.430Z,16.98
2023-05-16T20:44:58.811Z,16.89
2023-05-16T20:47:25.432Z,16.90
2023-05-16T20:49:51.990Z,16.75
2023-05-16T20:52:19.848Z,16.61
2023-05-16T20:54:47.767Z,16.38
2023-05-16T20:57:14.244Z,16.14
2023-05-16T20:59:40.944Z,16.48
2023-05-16T21:02:09.936Z,16.32
2023-05-16T21:04:39.622Z,16.42
2023-05-16T21:07:08.126Z,15.90
2023-05-16T21:09:36.733Z,15.88
2023-05-16T21:12:03.551Z,16.24
2023-05-16T21:14:29.903Z,15.59
2023-05-16T21:16:56.305Z,14.98
2023-05-16T21:19:22.797Z,15.66
2023-05-16T21:21:49.334Z,15.54
2023-05-16T21:24:16.022Z,15.51
2023-05-16T21:26:42.419Z,15.17
2023-05-16T21:29:08.828Z,15.35
2023-05-16T21:31:35.250Z,14.66
2023-05-16T21:34:01.718Z,14.90
2023-05-16T21:36:28.214Z,15.42
2023-05-16T21:38:54.656Z,15.48
2023-05-16T21:41:22.103Z,15.03
2023-05-16T21:43:48.549Z,14.61
2023-05-16T21:46:15.108Z,15.41
2023-05-16T21:48:41.644Z,15.34
2023-05-16T21:51:08.455Z,15.35
2023-05-16T21:53:35.002Z,14.83
2023-05-16T21:56:01.483Z,15.28
2023-05-16T21:58:27.855Z,14.79
2023-05-16T22:00:54.238Z,14.38
2023-05-16T22:03:21.392Z,15.24
2023-05-16T22:05:48.153Z,15.37
2023-05-16T22:08:14.647Z,14.55
2023-05-16T22:10:41.061Z,15.01
2023-05-16T22:13:08.093Z,14.96
2023-05-16T22:15:34.998Z,14.54
2023-05-16T22:18:01.672Z,15.14
2023-05-16T22:20:28.491Z,15.01
2023-05-16T22:22:54.900Z,15.33
2023-05-16T22:25:21.365Z,14.72
2023-05-16T22:27:47.773Z,14.12
2023-05-16T22:30:14.260Z,15.25
2023-05-16T22:32:40.870Z,14.72
2023-05-16T22:35:07.624Z,15.16
2023-05-16T22:37:34.064Z,14.86
2023-05-16T22:40:00.662Z,14.71
2023-05-16T22:42:27.337Z,15.26
2023-05-16T22:44:53.805Z,14.09
2023-05-16T22:47:20.939Z,15.29
2023-05-16T22:49:47.356Z,14.81
2023-05-16T22:52:13.783Z,15.30
2023-05-16T22:54:41.574Z,14.79
2023-05-16T22:57:08.092Z,14.46
2023-05-16T22:59:34.591Z,14.30
2023-05-16T23:02:01.159Z,15.08
2023-05-16T23:04:27.543Z,14.87
2023-05-16T23:06:54.006Z,14.69
2023-05-16T23:09:20.403Z,14.36
2023-05-16T23:11:46.845Z,14.84
2023-05-16T23:14:13.213Z,14.62
2023-05-16T23:16:39.609Z,14.76
2023-05-16T23:19:09.105Z,14.88
2023-05-16T23:21:36.154Z,14.15
2023-05-16T23:24:02.724Z,14.18
2023-05-16T23:26:29.204Z,14.65
2023-05-16T23:28:55.631Z,14.57
2023-05-16T23:31:22.022Z,14.15
2023-05-16T23:33:48.452Z,14.61
2023-05-16T23:36:14.898Z,13.96
2023-05-16T23:38:41.281Z,14.12
2023-05-16T23:41:07.719Z,14.81
2023-05-16T23:43:34.121Z,14.55
2023-05-16T23:46:00.581Z,13.45
2023-05-16T23:48:27.094Z,13.41
2023-05-16T23:50:53.526Z,14.04
2023-05-16T23:53:21.015Z,13.84
2023-05-16T23:55:47.382Z,14.37
2023-05-16T23:58:14.251Z,13.93
